createdAt,value
2022-09-12T00:01:36.898Z,97134.91
2022-09-12T00:04:05.537Z,97138.94
2022-09-12T00:06:37.012Z,97139.13
2022-09-12T00:09:09.578Z,97148.28
2022-09-12T00:11:39.016Z,97135.38
2022-09-12T00:14:10.905Z,97131.84
2022-09-12T00:16:40.496Z,97132.66
2022-09-12T00:19:10.424Z,97138.94
2022-09-12T00:21:40.897Z,97126.06
2022-09-12T00:24:10.280Z,97128.19
2022-09-12T00:26:38.939Z,97131.88
2022-09-12T00:29:08.750Z,97131.56
2022-09-12T00:31:37.079Z,97122.88
2022-09-12T00:34:05.398Z,97127.53
2022-09-12T00:36:33.669Z,97121.75
2022-09-12T00:39:02.567Z,97125.78
2022-09-12T00:41:35.000Z,97122.09
2022-09-12T00:44:25.439Z,97122.25
2022-09-12T00:47:01.081Z,97109.53
2022-09-12T00:49:34.870Z,97111.00
2022-09-12T00:52:09.516Z,97105.81
2022-09-12T00:54:42.985Z,97108.22
2022-09-12T00:57:15.964Z,97105.81
2022-09-12T00:59:49.899Z,97102.91
2022-09-12T01:02:20.289Z,97093.56
2022-09-12T01:04:48.912Z,97103.88
2022-09-12T01:07:17.759Z,97100.81
2022-09-12T01:09:47.171Z,97098.75
2022-09-12T01:12:16.941Z,97102.28
2022-09-12T01:14:45.492Z,97103.44
2022-09-12T01:17:16.812Z,97104.56
2022-09-12T01:20:40.981Z,97107.59
2022-09-12T01:23:56.863Z,97095.72
2022-09-12T01:26:58.629Z,97098.91
2022-09-12T01:30:25.319Z,97102.31
2022-09-12T01:33:17.865Z,97090.53
2022-09-12T01:35:59.645Z,97089.91
2022-09-12T01:38:39.683Z,97084.28
2022-09-12T01:41:25.518Z,97084.56
2022-09-12T01:44:08.333Z,97084.25
2022-09-12T01:46:45.458Z,97081.66
2022-09-12T01:49:23.053Z,97084.56
2022-09-12T01:51:59.999Z,97082.94
2022-09-12T01:54:35.593Z,97083.72
2022-09-12T01:57:12.117Z,97073.78
2022-09-12T01:59:46.561Z,97078.63
2022-09-12T02:02:19.966Z,97078.13
2022-09-12T02:04:59.322Z,97067.03
2022-09-12T02:07:36.012Z,97063.03
2022-09-12T02:10:12.466Z,97071.53
2022-09-12T02:12:48.767Z,97076.84
2022-09-12T02:15:23.015Z,97057.56
2022-09-12T02:17:54.909Z,97063.34
2022-09-12T02:20:47.029Z,97060.28
2022-09-12T02:23:23.545Z,97055.31
2022-09-12T02:25:58.632Z,97060.81
2022-09-12T02:28:33.067Z,97056.97
2022-09-12T02:31:14.582Z,97051.47
2022-09-12T02:33:54.583Z,97056.47
2022-09-12T02:36:37.677Z,97051.34
2022-09-12T02:39:06.024Z,97052.28
2022-09-12T02:41:34.476Z,97045.53
2022-09-12T02:44:04.076Z,97037.00
2022-09-12T02:46:40.112Z,97044.25
2022-09-12T02:49:09.491Z,97035.53
2022-09-12T02:51:39.779Z,97035.25
2022-09-12T02:54:09.293Z,97039.72
2022-09-12T02:56:42.989Z,97041.19
2022-09-12T02:59:17.105Z,97048.09
2022-09-12T03:02:16.751Z,97041.38
2022-09-12T03:05:23.988Z,97041.53
2022-09-12T03:08:21.069Z,97049.88
2022-09-12T03:11:39.957Z,97036.69
2022-09-12T03:14:29.154Z,97038.13
2022-09-12T03:17:08.774Z,97043.75
2022-09-12T03:19:53.803Z,97039.50
2022-09-12T03:22:33.100Z,97042.75
2022-09-12T03:25:16.290Z,97047.59
2022-09-12T03:27:50.815Z,97035.19
2022-09-12T03:30:19.351Z,97039.03
2022-09-12T03:32:49.767Z,97040.81
2022-09-12T03:35:23.040Z,97040.03
2022-09-12T03:37:53.353Z,97035.56
2022-09-12T03:40:23.060Z,97037.94
2022-09-12T03:42:52.035Z,97034.41
2022-09-12T03:45:20.603Z,97039.75
2022-09-12T03:47:49.374Z,97046.31
2022-09-12T03:50:17.842Z,97040.06
2022-09-12T03:52:46.065Z,97051.47
2022-09-12T03:55:14.289Z,97048.25
2022-09-12T03:57:44.133Z,97039.41
2022-09-12T04:00:19.068Z,97040.84
2022-09-12T04:02:48.410Z,97047.16
2022-09-12T04:05:16.910Z,97045.38
2022-09-12T04:07:45.118Z,97046.00
2022-09-12T04:10:16.067Z,97042.13
2022-09-12T04:12:46.393Z,97044.38
2022-09-12T04:15:14.907Z,97042.47
2022-09-12T04:17:43.609Z,97048.41
2022-09-12T04:20:12.225Z,97041.66
2022-09-12T04:22:40.462Z,97045.97
2022-09-12T04:25:10.443Z,97046.47
2022-09-12T04:27:38.727Z,97044.53
2022-09-12T04:30:10.371Z,97039.41
2022-09-12T04:32:38.879Z,97048.06
2022-09-12T04:35:07.668Z,97048.06
2022-09-12T04:37:36.345Z,97051.44
2022-09-12T04:40:05.626Z,97041.75
2022-09-12T04:42:34.006Z,97046.75
2022-09-12T04:45:03.608Z,97047.53
2022-09-12T04:47:33.423Z,97043.53
2022-09-12T04:50:01.681Z,97040.16
2022-09-12T04:52:30.007Z,97042.88
2022-09-12T04:54:58.219Z,97043.22
2022-09-12T04:57:26.535Z,97048.03
2022-09-12T04:59:54.729Z,97048.53
2022-09-12T05:02:23.126Z,97046.91
2022-09-12T05:04:54.297Z,97050.63
2022-09-12T05:07:22.859Z,97056.09
2022-09-12T05:09:51.435Z,97052.06
2022-09-12T05:12:19.690Z,97060.09
2022-09-12T05:14:47.966Z,97051.75
2022-09-12T05:17:16.209Z,97053.84
2022-09-12T05:19:44.496Z,97055.31
2022-09-12T05:22:14.089Z,97049.34
2022-09-12T05:24:47.300Z,97049.69
2022-09-12T05:27:18.159Z,97049.06
2022-09-12T05:29:46.480Z,97054.03
2022-09-12T05:32:15.045Z,97064.66
2022-09-12T05:34:43.298Z,97064.50
2022-09-12T05:37:13.050Z,97070.63
2022-09-12T05:39:41.360Z,97079.44
2022-09-12T05:42:09.883Z,97074.97
2022-09-12T05:44:38.067Z,97074.94
2022-09-12T05:47:06.784Z,97073.03
2022-09-12T05:49:37.167Z,97080.41
2022-09-12T05:52:05.483Z,97070.25
2022-09-12T05:54:35.089Z,97077.78
2022-09-12T05:57:03.678Z,97082.28
2022-09-12T05:59:32.054Z,97078.03
2022-09-12T06:02:00.417Z,97075.44
2022-09-12T06:04:29.269Z,97083.72
2022-09-12T06:06:57.946Z,97080.75
2022-09-12T06:09:26.411Z,97082.13
2022-09-12T06:11:56.148Z,97080.22
2022-09-12T06:14:24.374Z,97080.91
2022-09-12T06:16:52.929Z,97084.25
2022-09-12T06:19:25.074Z,97076.47
2022-09-12T06:21:53.620Z,97079.56
2022-09-12T06:24:22.665Z,97080.16
2022-09-12T06:26:53.043Z,97086.31
2022-09-12T06:29:22.658Z,97082.41
2022-09-12T06:31:50.992Z,97083.25
2022-09-12T06:34:19.983Z,97088.03
2022-09-12T06:36:50.084Z,97084.47
2022-09-12T06:39:21.468Z,97082.88
2022-09-12T06:41:51.096Z,97079.72
2022-09-12T06:44:23.547Z,97078.56
2022-09-12T06:46:53.659Z,97081.25
2022-09-12T06:49:21.911Z,97082.53
2022-09-12T06:51:50.148Z,97082.19
2022-09-12T06:54:19.999Z,97086.50
2022-09-12T06:56:48.271Z,97089.75
2022-09-12T06:59:16.572Z,97085.41
2022-09-12T07:01:46.248Z,97092.03
2022-09-12T07:04:14.489Z,97087.25
2022-09-12T07:06:44.889Z,97093.66
2022-09-12T07:09:17.362Z,97087.94
2022-09-12T07:11:47.306Z,97090.22
2022-09-12T07:14:16.870Z,97087.53
2022-09-12T07:16:46.531Z,97089.19
2022-09-12T07:19:15.089Z,97084.25
2022-09-12T07:21:43.652Z,97084.72
2022-09-12T07:24:12.140Z,97083.00
2022-09-12T07:26:42.247Z,97084.44
2022-09-12T07:32:08.029Z,97090.66
2022-09-12T07:34:37.364Z,97081.84
2022-09-12T07:37:05.971Z,97082.50
2022-09-12T07:39:34.278Z,97087.72
2022-09-12T07:42:02.905Z,97090.28
2022-09-12T07:44:31.189Z,97081.69
2022-09-12T07:46:59.787Z,97083.88
2022-09-12T07:49:30.492Z,97086.56
2022-09-12T07:51:58.730Z,97089.75
2022-09-12T07:54:26.963Z,97086.13
2022-09-12T07:56:55.406Z,97088.16
2022-09-12T07:59:48.464Z,97093.19
2022-09-12T08:02:17.026Z,97082.88
2022-09-12T08:04:48.723Z,97090.69
2022-09-12T08:07:19.364Z,97092.56
2022-09-12T08:09:47.708Z,97092.00
2022-09-12T08:12:17.785Z,97094.75
2022-09-12T08:14:45.960Z,97111.31
2022-09-12T08:17:14.429Z,97103.75
2022-09-12T08:19:42.714Z,97102.78
2022-09-12T08:22:12.422Z,97112.69
2022-09-12T08:24:40.740Z,97110.34
2022-09-12T08:27:09.545Z,97115.25
2022-09-12T08:29:37.799Z,97112.41
2022-09-12T08:32:06.500Z,97108.25
2022-09-12T08:34:35.110Z,97108.38
2022-09-12T08:37:04.087Z,97106.94
2022-09-12T08:39:33.935Z,97111.88
2022-09-12T08:42:05.089Z,97110.84
2022-09-12T08:45:07.300Z,97106.53
2022-09-12T08:47:41.045Z,97110.56
2022-09-12T08:50:17.773Z,97106.34
2022-09-12T08:52:58.498Z,97106.34
2022-09-12T08:55:36.118Z,97106.53
2022-09-12T08:58:16.158Z,97119.22
2022-09-12T09:00:59.392Z,97107.28
2022-09-12T09:04:20.622Z,97102.16
2022-09-12T09:07:25.969Z,97106.78
2022-09-12T09:10:17.388Z,97107.34
2022-09-12T09:13:01.930Z,97110.22
2022-09-12T09:15:45.641Z,97108.50
2022-09-12T09:18:22.715Z,97111.81
2022-09-12T09:20:57.220Z,97108.63
2022-09-12T09:23:31.003Z,97109.41
2022-09-12T09:26:07.119Z,97114.97
2022-09-12T09:28:45.916Z,97109.00
2022-09-12T09:31:17.721Z,97108.56
2022-09-12T09:33:51.101Z,97105.94
2022-09-12T09:36:25.193Z,97107.44
2022-09-12T09:39:05.818Z,97097.56
2022-09-12T09:41:55.962Z,97100.19
2022-09-12T09:44:25.826Z,97101.31
2022-09-12T09:46:59.221Z,97099.84
2022-09-12T09:49:31.340Z,97094.81
2022-09-12T09:52:01.828Z,97094.16
2022-09-12T09:54:38.707Z,97085.94
2022-09-12T09:57:37.842Z,97085.44
2022-09-12T10:03:12.608Z,97087.56
2022-09-12T10:05:48.985Z,97078.81
2022-09-12T10:08:27.417Z,97079.78
2022-09-12T10:11:03.356Z,97085.63
2022-09-12T10:13:40.583Z,97082.66
2022-09-12T10:16:20.910Z,97085.50
2022-09-12T10:18:53.117Z,97079.97
2022-09-12T10:21:30.650Z,97075.50
2022-09-12T10:24:15.845Z,97074.19
2022-09-12T10:26:56.395Z,97074.91
2022-09-12T10:29:31.473Z,97064.16
2022-09-12T10:32:04.654Z,97072.16
2022-09-12T10:34:40.076Z,97069.69
2022-09-12T10:37:11.954Z,97073.22
2022-09-12T10:39:40.763Z,97071.41
2022-09-12T10:42:15.556Z,97071.38
2022-09-12T10:44:55.667Z,97066.78
2022-09-12T10:47:29.259Z,97075.97
2022-09-12T10:50:26.210Z,97076.09
2022-09-12T10:52:55.401Z,97073.28
2022-09-12T10:55:33.826Z,97062.13
2022-09-12T10:58:23.949Z,97050.31
2022-09-12T11:01:00.677Z,97046.19
2022-09-12T11:04:01.469Z,97047.31
2022-09-12T11:06:40.904Z,97050.25
2022-09-12T11:09:24.113Z,97051.00
2022-09-12T11:12:09.799Z,97048.72
2022-09-12T11:14:57.451Z,97043.59
2022-09-12T11:17:43.901Z,97042.22
2022-09-12T11:20:51.784Z,97038.44
2022-09-12T11:24:05.964Z,97039.72
2022-09-12T11:26:56.744Z,97045.97
2022-09-12T11:29:48.339Z,97045.19
2022-09-12T11:32:50.810Z,97049.22
2022-09-12T11:35:25.877Z,97048.44
2022-09-12T11:38:26.721Z,97034.47
2022-09-12T11:41:01.790Z,97029.94
2022-09-12T11:43:41.604Z,97028.06
2022-09-12T11:46:20.750Z,97027.38
2022-09-12T11:48:59.039Z,97027.19
2022-09-12T11:51:36.627Z,97027.41
2022-09-12T11:54:17.076Z,97030.09
2022-09-12T11:56:54.892Z,97020.28
2022-09-12T11:59:41.311Z,97028.03
2022-09-12T12:02:19.331Z,97019.72
2022-09-12T12:05:04.980Z,97031.53
2022-09-12T12:07:45.664Z,97024.44
2022-09-12T12:10:33.512Z,97030.72
2022-09-12T12:13:13.887Z,97021.94
2022-09-12T12:15:49.665Z,97018.16
2022-09-12T12:18:23.649Z,97015.13
2022-09-12T12:20:53.119Z,97028.19
2022-09-12T12:23:28.545Z,97017.38
2022-09-12T12:25:58.911Z,97016.97
2022-09-12T12:29:02.516Z,97006.31
2022-09-12T12:31:30.834Z,97005.78
2022-09-12T12:34:27.478Z,97002.38
2022-09-12T12:36:55.768Z,96997.63
2022-09-12T12:40:05.604Z,96982.22
2022-09-12T12:43:31.977Z,96980.94
2022-09-12T12:46:14.202Z,96979.78
2022-09-12T12:49:05.266Z,96977.88
2022-09-12T12:51:50.331Z,96977.94
2022-09-12T12:54:54.625Z,96972.88
2022-09-12T12:57:49.364Z,96966.13
2022-09-12T13:00:35.852Z,96969.66
2022-09-12T13:03:25.807Z,96957.00
2022-09-12T13:06:03.272Z,96951.06
2022-09-12T13:08:34.591Z,96950.81
2022-09-12T13:11:09.472Z,96941.91
2022-09-12T13:13:48.521Z,96934.38
2022-09-12T13:16:32.932Z,96924.59
2022-09-12T13:19:09.253Z,96926.88
2022-09-12T13:21:38.340Z,96922.25
2022-09-12T13:24:17.176Z,96925.28
2022-09-12T13:26:46.942Z,96918.09
2022-09-12T13:29:18.655Z,96916.03
2022-09-12T13:31:52.704Z,96915.56
2022-09-12T13:34:27.868Z,96915.25
2022-09-12T13:37:19.004Z,96925.41
2022-09-12T13:39:50.519Z,96917.84
2022-09-12T13:42:49.633Z,96919.97
2022-09-12T13:45:23.399Z,96917.56
2022-09-12T13:47:58.850Z,96909.66
2022-09-12T13:50:33.379Z,96911.94
2022-09-12T13:53:07.198Z,96900.81
2022-09-12T13:55:39.830Z,96903.34
2022-09-12T13:58:18.183Z,96907.38
2022-09-12T14:00:46.590Z,96905.28
2022-09-12T14:03:46.913Z,96890.88
2022-09-12T14:06:19.097Z,96899.25
2022-09-12T14:08:48.934Z,96897.78
2022-09-12T14:11:27.184Z,96900.31
2022-09-12T14:13:57.069Z,96895.59
2022-09-12T14:16:29.035Z,96896.97
2022-09-12T14:18:58.963Z,96901.59
2022-09-12T14:21:38.505Z,96895.13
2022-09-12T14:24:10.015Z,96894.59
2022-09-12T14:26:41.185Z,96889.88
2022-09-12T14:29:12.705Z,96894.03
2022-09-12T14:31:41.372Z,96886.34
2022-09-12T14:34:14.738Z,96878.50
2022-09-12T14:36:51.327Z,96887.56
2022-09-12T14:39:30.412Z,96876.94
2022-09-12T14:42:12.991Z,96877.69
2022-09-12T14:44:44.123Z,96877.16
2022-09-12T14:47:19.635Z,96872.00
2022-09-12T14:49:50.113Z,96862.22
2022-09-12T14:52:28.757Z,96864.16
2022-09-12T14:54:59.526Z,96860.75
2022-09-12T14:57:42.328Z,96863.50
2022-09-12T15:00:23.973Z,96857.56
2022-09-12T15:02:53.618Z,96860.63
2022-09-12T15:05:28.838Z,96862.28
2022-09-12T15:08:02.900Z,96850.28
2022-09-12T15:10:36.322Z,96870.25
2022-09-12T15:13:30.924Z,96860.75
2022-09-12T15:16:00.658Z,96856.69
2022-09-12T15:18:30.550Z,96852.66
2022-09-12T15:21:06.004Z,96856.28
2022-09-12T15:23:42.824Z,96852.47
2022-09-12T15:26:14.859Z,96862.78
2022-09-12T15:28:43.322Z,96849.66
2022-09-12T15:31:24.534Z,96850.75
2022-09-12T15:33:52.973Z,96853.34
2022-09-12T15:36:23.545Z,96843.19
2022-09-12T15:38:54.208Z,96840.06
2022-09-12T15:41:26.270Z,96836.09
2022-09-12T15:43:54.517Z,96835.66
2022-09-12T15:46:22.720Z,96830.03
2022-09-12T15:48:51.181Z,96826.13
2022-09-12T15:51:22.792Z,96829.59
2022-09-12T15:53:53.573Z,96829.19
2022-09-12T15:56:23.615Z,96829.34
2022-09-12T15:58:59.092Z,96828.59
2022-09-12T16:01:29.744Z,96830.19
2022-09-12T16:03:58.253Z,96823.84
2022-09-12T16:06:27.643Z,96817.97
2022-09-12T16:08:57.276Z,96824.41
2022-09-12T16:11:28.348Z,96824.09
2022-09-12T16:13:58.137Z,96831.22
2022-09-12T16:16:26.588Z,96830.84
2022-09-12T16:18:54.881Z,96824.50
2022-09-12T16:21:23.169Z,96820.94
2022-09-12T16:23:52.226Z,96822.94
2022-09-12T16:26:22.137Z,96825.38
2022-09-12T16:28:56.906Z,96813.84
2022-09-12T16:31:25.513Z,96800.78
2022-09-12T16:33:54.708Z,96807.06
2022-09-12T16:36:24.175Z,96806.25
2022-09-12T16:38:55.293Z,96801.47
2022-09-12T16:41:26.647Z,96802.97
2022-09-12T16:43:55.925Z,96800.19
2022-09-12T16:46:28.594Z,96798.06
2022-09-12T16:48:59.158Z,96803.53
2022-09-12T16:51:31.859Z,96806.56
2022-09-12T16:54:00.403Z,96800.88
2022-09-12T16:56:30.646Z,96791.66
2022-09-12T16:58:58.903Z,96792.72
2022-09-12T17:01:27.917Z,96797.00
2022-09-12T17:03:59.308Z,96788.97
2022-09-12T17:06:28.919Z,96792.44
2022-09-12T17:09:03.493Z,96793.81
2022-09-12T17:11:36.337Z,96792.53
2022-09-12T17:14:07.776Z,96795.81
2022-09-12T17:16:38.874Z,96798.03
2022-09-12T17:19:08.183Z,96803.78
2022-09-12T17:21:37.010Z,96798.81
2022-09-12T17:24:05.542Z,96799.03
2022-09-12T17:26:35.262Z,96798.41
2022-09-12T17:29:03.769Z,96792.25
2022-09-12T17:31:33.088Z,96799.88
2022-09-12T17:34:03.136Z,96791.06
2022-09-12T17:36:32.918Z,96788.91
2022-09-12T17:39:03.528Z,96790.31
2022-09-12T17:41:34.528Z,96786.31
2022-09-12T17:44:03.714Z,96783.38
2022-09-12T17:46:35.808Z,96794.28
2022-09-12T17:49:07.554Z,96796.50
2022-09-12T17:51:37.007Z,96795.50
2022-09-12T17:54:08.444Z,96786.66
2022-09-12T17:56:38.754Z,96786.59
2022-09-12T17:59:09.142Z,96788.47
2022-09-12T18:01:54.941Z,96795.91
2022-09-12T18:04:23.212Z,96793.34
2022-09-12T18:06:51.537Z,96789.22
2022-09-12T18:09:24.887Z,96790.25
2022-09-12T18:11:54.997Z,96788.25
2022-09-12T18:14:23.823Z,96779.88
2022-09-12T18:16:52.552Z,96785.59
2022-09-12T18:19:20.953Z,96778.41
2022-09-12T18:21:49.145Z,96777.59
2022-09-12T18:24:17.621Z,96782.69
2022-09-12T18:26:46.223Z,96792.53
2022-09-12T18:29:16.879Z,96786.16
2022-09-12T18:31:46.713Z,96794.69
2022-09-12T18:34:16.185Z,96796.59
2022-09-12T18:36:47.397Z,96790.53
2022-09-12T18:39:16.555Z,96800.25
2022-09-12T18:41:45.532Z,96804.88
2022-09-12T18:44:15.506Z,96795.41
2022-09-12T18:46:43.867Z,96801.25
2022-09-12T18:49:12.386Z,96797.69
2022-09-12T18:51:41.939Z,96798.06
2022-09-12T18:54:14.631Z,96799.59
2022-09-12T18:56:44.138Z,96805.00
2022-09-12T18:59:14.868Z,96803.75
2022-09-12T19:01:45.030Z,96815.13
2022-09-12T19:04:16.482Z,96807.59
2022-09-12T19:06:47.348Z,96813.00
2022-09-12T19:09:17.692Z,96810.25
2022-09-12T19:11:49.936Z,96808.28
2022-09-12T19:14:22.600Z,96811.41
2022-09-12T19:16:52.660Z,96804.69
2022-09-12T19:19:21.338Z,96808.56
2022-09-12T19:21:49.704Z,96801.94
2022-09-12T19:24:18.441Z,96793.75
2022-09-12T19:26:47.127Z,96811.88
2022-09-12T19:29:16.695Z,96814.16
2022-09-12T19:31:45.997Z,96808.50
2022-09-12T19:34:16.407Z,96807.25
2022-09-12T19:36:46.683Z,96800.31
2022-09-12T19:39:17.183Z,96803.06
2022-09-12T19:41:46.508Z,96797.13
2022-09-12T19:44:15.112Z,96805.31
2022-09-12T19:46:43.523Z,96794.94
2022-09-12T19:49:13.250Z,96797.25
2022-09-12T19:51:43.926Z,96793.25
2022-09-12T19:54:12.450Z,96783.38
2022-09-12T19:56:40.842Z,96787.94
2022-09-12T19:59:09.787Z,96795.28
2022-09-12T20:01:38.525Z,96790.91
2022-09-12T20:04:07.631Z,96791.31
2022-09-12T20:06:36.760Z,96792.53
2022-09-12T20:09:06.777Z,96798.31
2022-09-12T20:11:35.437Z,96797.50
2022-09-12T20:14:03.934Z,96797.03
2022-09-12T20:16:33.435Z,96788.78
2022-09-12T20:19:06.887Z,96793.78
2022-09-12T20:21:36.804Z,96785.09
2022-09-12T20:24:10.643Z,96793.22
2022-09-12T20:26:39.752Z,96793.22
2022-09-12T20:29:09.212Z,96798.84
2022-09-12T20:31:39.509Z,96785.09
2022-09-12T20:34:09.262Z,96787.00
2022-09-12T20:36:37.628Z,96787.25
2022-09-12T20:39:07.467Z,96783.72
2022-09-12T20:41:36.707Z,96776.16
2022-09-12T20:44:05.180Z,96774.03
2022-09-12T20:46:33.614Z,96774.38
2022-09-12T20:49:02.273Z,96779.44
2022-09-12T20:51:31.197Z,96777.03
2022-09-12T20:54:03.247Z,96775.44
2022-09-12T20:56:36.501Z,96773.03
2022-09-12T20:59:06.279Z,96768.94
2022-09-12T21:01:34.791Z,96770.56
2022-09-12T21:04:03.836Z,96778.00
2022-09-12T21:06:32.678Z,96777.53
2022-09-12T21:09:01.071Z,96771.94
2022-09-12T21:11:30.406Z,96768.75
2022-09-12T21:14:00.122Z,96774.59
2022-09-12T21:16:28.920Z,96773.59
2022-09-12T21:18:59.838Z,96776.63
2022-09-12T21:21:28.591Z,96779.38
2022-09-12T21:23:59.796Z,96767.50
2022-09-12T21:26:28.454Z,96766.31
2022-09-12T21:28:57.451Z,96768.19
2022-09-12T21:31:28.020Z,96770.13
2022-09-12T21:33:56.453Z,96772.31
2022-09-12T21:36:25.976Z,96778.97
2022-09-12T21:38:54.249Z,96781.00
2022-09-12T21:41:22.552Z,96783.66
2022-09-12T21:43:51.305Z,96775.22
2022-09-12T21:46:19.620Z,96772.63
2022-09-12T21:48:49.318Z,96777.22
2022-09-12T21:51:18.111Z,96779.28
2022-09-12T21:53:46.473Z,96783.94
2022-09-12T21:56:14.787Z,96785.91
2022-09-12T21:58:43.197Z,96774.41
2022-09-12T22:01:13.498Z,96780.34
2022-09-12T22:03:44.700Z,96785.72
2022-09-12T22:06:16.387Z,96780.72
2022-09-12T22:08:45.996Z,96773.97
2022-09-12T22:11:14.267Z,96776.28
2022-09-12T22:13:43.871Z,96766.69
2022-09-12T22:16:13.063Z,96768.06
2022-09-12T22:18:41.778Z,96769.31
2022-09-12T22:21:15.603Z,96772.63
2022-09-12T22:24:01.286Z,96780.13
2022-09-12T22:26:30.970Z,96769.13
2022-09-12T22:28:59.302Z,96767.78
2022-09-12T22:31:28.194Z,96763.09
2022-09-12T22:33:57.338Z,96766.75
2022-09-12T22:36:30.957Z,96754.31
2022-09-12T22:38:59.646Z,96755.84
2022-09-12T22:41:28.507Z,96758.03
2022-09-12T22:43:57.607Z,96753.22
2022-09-12T22:46:26.332Z,96759.16
2022-09-12T22:48:55.670Z,96744.03
2022-09-12T22:51:24.046Z,96748.75
2022-09-12T22:53:53.782Z,96745.25
2022-09-12T22:56:22.545Z,96737.44
2022-09-12T22:58:50.978Z,96728.16
2022-09-12T23:01:20.082Z,96731.59
2022-09-12T23:03:48.730Z,96723.97
2022-09-12T23:06:17.913Z,96725.34
2022-09-12T23:08:46.509Z,96716.91
2022-09-12T23:11:19.176Z,96719.31
2022-09-12T23:13:49.636Z,96721.13
2022-09-12T23:16:21.509Z,96725.31
2022-09-12T23:18:50.340Z,96732.81
2022-09-12T23:21:21.454Z,96729.28
2022-09-12T23:23:50.378Z,96728.75
2022-09-12T23:26:23.693Z,96736.13
2022-09-12T23:28:54.444Z,96740.06
2022-09-12T23:31:24.386Z,96736.16
2022-09-12T23:33:54.643Z,96715.38
2022-09-12T23:36:24.192Z,96722.81
2022-09-12T23:38:52.937Z,96722.22
2022-09-12T23:41:23.535Z,96707.47
2022-09-12T23:43:51.940Z,96711.97
2022-09-12T23:46:22.059Z,96706.91
2022-09-12T23:48:53.172Z,96704.06
2022-09-12T23:51:22.756Z,96708.41
2022-09-12T23:53:51.210Z,96696.84
2022-09-12T23:56:19.434Z,96699.72
2022-09-12T23:58:49.119Z,96698.00
